Terminal Aerodrome Forecast
Issued by NWS Pueblo, CO

Home | Current Version | Previous Version | Text Only | Print | Product List | Glossary On
Versions: 1 2 3 4 5 6 7 8 9 10 11 12 13 14 15 16 17 18
000
FTUS45 KPUB 180527
TAFPUB
TAF
KPUB 180527Z 1806/1906 29010KT P6SM SKC
     FM181500 25015KT P6SM SKC
     FM181700 25018G30KT P6SM SKC
     FM190300 27012KT P6SM FEW250=

USA.gov is the U.S. government's official web portal to all federal, state and local government web resources and services.